Terminal Aerodrome Forecast
Issued by NWS

Home | Current Version | Previous Version | Text Only | Print | Product List | Glossary On
Versions: 1 2 3 4 5 6 7 8 9 10 11 12 13 14 15 16 17 18 19 20 21 22 23 24 25 26 27 28 29 30 31 32 33 34 35 36 37 38 39 40 41 42 43 44 45 46 47 48 49 50
474
FTUS41 KBOX 180308 AAB
TAFHYA
TAF AMD
KHYA 180308Z 1803/1824 14006KT 3/4SM -SN BR OVC004
     FM180530 13007KT 1/4SM +SN FG OVC003
     FM180700 12009KT 1SM -SNRA OVC003
     FM181100 31010KT 2SM -SN OVC005
     FM181300 31013G25KT P6SM VCSH BKN008
     FM181400 32016G29KT P6SM VCSH SCT060
     FM181900 32010G19KT P6SM FEW250
     FM182100 30006KT P6SM SKC=

USA.gov is the U.S. government's official web portal to all federal, state and local government web resources and services.